Time;durP1;ratioP1;P1;durP2;ratioP2;P2;SDS_P1;SDS_P2;PMS_P1;PMS_P2;Temp;Humidity;BMP_temperature;BMP_pressure;BME280_temperature;BME280_humidity;BME280_pressure;Samples;Min_cycle;Max_cycle;Signal;HPM_P1;HPM_P2
2022/05/18 00:00:16;;;;;;;10.43;4.10;;;16.30;99.90;;;;;;5063320;28;20585;-75
2022/05/18 00:03:05;;;;;;;5.07;3.67;;;16.30;99.90;;;;;;5065561;28;20435;-75
2022/05/18 00:05:51;;;;;;;5.10;3.73;;;16.20;99.90;;;;;;5070500;28;20626;-75
2022/05/18 00:08:39;;;;;;;5.33;3.27;;;16.20;99.90;;;;;;5070919;28;20458;-74
2022/05/18 00:11:25;;;;;;;5.40;3.43;;;16.20;99.90;;;;;;5066065;28;20477;-73
2022/05/18 00:14:10;;;;;;;5.93;3.90;;;16.20;99.90;;;;;;5075585;28;20443;-76
2022/05/18 00:16:56;;;;;;;4.80;3.73;;;16.10;99.90;;;;;;5070847;28;20442;-75
2022/05/18 00:19:42;;;;;;;4.77;3.67;;;16.00;99.90;;;;;;5065538;28;20436;-73
2022/05/18 00:22:27;;;;;;;9.53;4.10;;;16.00;99.90;;;;;;5068038;28;20470;-76
2022/05/18 00:25:15;;;;;;;9.13;5.87;;;16.10;99.90;;;;;;5070139;28;20999;-75
2022/05/18 00:28:01;;;;;;;5.60;3.73;;;16.00;99.90;;;;;;5070045;28;20998;-75
2022/05/18 00:30:47;;;;;;;10.27;3.90;;;16.00;99.90;;;;;;5065705;28;20608;-75
2022/05/18 00:33:33;;;;;;;5.00;3.80;;;15.90;99.90;;;;;;5071778;28;20442;-75
2022/05/18 00:36:19;;;;;;;5.60;4.23;;;15.90;99.90;;;;;;5069823;28;20832;-75
2022/05/18 00:39:05;;;;;;;5.20;4.20;;;16.00;99.90;;;;;;5066374;28;20441;-75
2022/05/18 00:41:52;;;;;;;7.53;3.73;;;15.90;99.90;;;;;;5068667;28;20484;-75
2022/05/18 00:44:38;;;;;;;7.53;4.73;;;15.90;99.90;;;;;;5073570;28;20544;-75
2022/05/18 00:47:24;;;;;;;5.47;3.93;;;15.80;99.90;;;;;;5077686;28;20520;-75
2022/05/18 00:50:15;;;;;;;5.60;3.80;;;15.80;99.90;;;;;;5062482;28;20445;-74
2022/05/18 00:53:05;;;;;;;5.10;4.10;;;15.80;99.90;;;;;;5074560;28;20628;-74
2022/05/18 00:55:56;;;;;;;5.00;4.17;;;15.80;99.90;;;;;;5065742;28;21087;-74
2022/05/18 00:58:48;;;;;;;4.90;3.77;;;15.80;99.90;;;;;;5068830;28;20494;-75
2022/05/18 01:01:33;;;;;;;6.20;3.87;;;15.70;99.90;;;;;;5074905;28;20474;-75
2022/05/18 01:04:19;;;;;;;7.10;4.03;;;15.70;99.90;;;;;;5070249;28;20584;-73
2022/05/18 01:07:10;;;;;;;9.77;4.27;;;15.70;99.90;;;;;;5068081;28;20577;-75
2022/05/18 01:09:56;;;;;;;6.73;4.50;;;15.60;99.90;;;;;;5069959;28;20821;-75
2022/05/18 01:12:42;;;;;;;4.50;4.00;;;15.60;99.90;;;;;;5073974;28;20504;-75
2022/05/18 01:15:32;;;;;;;7.00;3.70;;;15.60;99.90;;;;;;5076367;28;20441;-75
2022/05/18 01:18:18;;;;;;;5.33;4.00;;;15.60;99.90;;;;;;5069761;28;20812;-75
2022/05/18 01:21:04;;;;;;;6.60;4.47;;;15.70;99.90;;;;;;5062199;28;20569;-75
2022/05/18 01:23:59;;;;;;;9.37;4.27;;;15.70;99.90;;;;;;5077331;28;20450;-75
2022/05/18 01:26:48;;;;;;;5.40;3.70;;;15.60;99.90;;;;;;5063698;28;20508;-75
2022/05/18 01:29:35;;;;;;;6.87;4.37;;;15.60;99.90;;;;;;5068275;28;20536;-74
2022/05/18 01:32:22;;;;;;;5.40;3.80;;;15.50;99.90;;;;;;5071452;28;20435;-75
2022/05/18 01:35:09;;;;;;;8.67;4.20;;;15.50;99.90;;;;;;5074592;28;20930;-76
2022/05/18 01:37:57;;;;;;;7.10;4.90;;;15.60;99.90;;;;;;5061919;28;20504;-75
2022/05/18 01:40:51;;;;;;;5.77;4.07;;;15.60;99.90;;;;;;5064930;28;20450;-75
2022/05/18 01:43:42;;;;;;;5.43;3.90;;;15.60;99.90;;;;;;5072404;28;20437;-75
2022/05/18 01:46:31;;;;;;;8.60;4.57;;;15.60;99.90;;;;;;5074229;28;20457;-75
2022/05/18 01:49:17;;;;;;;6.70;4.10;;;15.60;99.90;;;;;;5070046;28;20454;-75
2022/05/18 01:52:03;;;;;;;4.80;3.83;;;15.60;99.90;;;;;;5068208;28;20422;-75
2022/05/18 01:54:49;;;;;;;4.40;3.90;;;15.50;99.90;;;;;;5065783;28;20438;-75
2022/05/18 01:57:36;;;;;;;6.83;4.80;;;15.50;99.90;;;;;;5069470;28;20466;-74
2022/05/18 02:00:23;;;;;;;6.00;3.60;;;15.60;99.90;;;;;;5069466;28;20447;-75
2022/05/18 02:03:09;;;;;;;8.90;4.03;;;15.60;99.90;;;;;;5072524;28;20473;-74
2022/05/18 02:05:55;;;;;;;5.00;3.80;;;15.50;99.90;;;;;;5080100;22;20490;-77
2022/05/18 02:08:42;;;;;;;5.60;3.80;;;15.50;99.90;;;;;;5066513;28;20926;-77
2022/05/18 02:11:28;;;;;;;8.07;4.70;;;15.40;99.90;;;;;;5068336;28;20417;-78
2022/05/18 02:14:13;;;;;;;7.03;4.50;;;15.40;99.90;;;;;;5073354;28;20496;-77
2022/05/18 02:17:01;;;;;;;4.97;4.07;;;15.40;99.90;;;;;;5061777;28;20433;-77
2022/05/18 02:19:46;;;;;;;7.40;3.70;;;15.30;99.90;;;;;;5066244;28;20534;-77
2022/05/18 02:22:32;;;;;;;6.00;4.30;;;15.30;99.90;;;;;;5069230;28;20482;-77
2022/05/18 02:25:17;;;;;;;7.63;4.47;;;15.20;99.90;;;;;;5071683;28;20491;-78
2022/05/18 02:28:03;;;;;;;5.47;4.20;;;15.20;99.90;;;;;;5067221;28;20421;-78
2022/05/18 02:30:49;;;;;;;5.67;3.83;;;15.20;99.90;;;;;;5071460;28;20451;-77
2022/05/18 02:33:36;;;;;;;4.70;4.03;;;15.30;99.90;;;;;;5071277;28;20906;-78
2022/05/18 02:36:22;;;;;;;4.40;3.33;;;15.30;99.90;;;;;;5070686;28;20552;-78
2022/05/18 02:39:07;;;;;;;5.13;3.90;;;15.30;99.90;;;;;;5066269;28;20466;-77
2022/05/18 02:41:53;;;;;;;5.23;4.27;;;15.30;99.90;;;;;;5071297;28;21015;-76
2022/05/18 02:44:39;;;;;;;8.43;4.03;;;15.30;99.90;;;;;;5065019;28;20443;-78
2022/05/18 02:47:24;;;;;;;6.37;4.70;;;15.20;99.90;;;;;;5063728;28;20451;-78
2022/05/18 02:50:12;;;;;;;6.50;4.33;;;15.30;99.90;;;;;;5067553;28;20923;-77
2022/05/18 02:52:58;;;;;;;5.83;4.43;;;15.30;99.90;;;;;;5063953;28;20447;-77
2022/05/18 02:58:49;;;;;;;9.80;5.07;;;15.20;99.90;;;;;;5059470;28;20451;-77
2022/05/18 03:01:34;;;;;;;5.70;4.50;;;15.10;99.90;;;;;;5067610;28;20457;-77
2022/05/18 03:04:20;;;;;;;17.20;5.90;;;15.10;99.90;;;;;;5069784;28;20589;-79
2022/05/18 03:07:07;;;;;;;9.20;6.00;;;15.00;99.90;;;;;;5061884;28;20474;-79
2022/05/18 03:09:52;;;;;;;6.20;4.77;;;14.90;99.90;;;;;;5062330;28;20431;-77
2022/05/18 03:12:38;;;;;;;9.73;4.40;;;14.90;99.90;;;;;;5065150;28;20549;-79
2022/05/18 03:15:24;;;;;;;10.90;5.20;;;15.00;99.90;;;;;;5062065;28;20446;-77
2022/05/18 03:18:10;;;;;;;8.53;5.30;;;15.00;99.90;;;;;;5063781;28;20573;-79
2022/05/18 03:24:00;;;;;;;11.40;4.57;;;14.90;99.90;;;;;;5060675;28;20427;-78
2022/05/18 03:26:46;;;;;;;6.60;4.80;;;14.90;99.90;;;;;;5068845;28;20547;-79
2022/05/18 03:29:31;;;;;;;7.37;5.30;;;14.90;99.90;;;;;;5068098;28;20417;-79
2022/05/18 03:32:17;;;;;;;8.03;4.33;;;14.80;99.90;;;;;;5071786;28;20443;-78
2022/05/18 03:35:03;;;;;;;11.17;6.20;;;14.80;99.90;;;;;;5066661;28;20479;-79
2022/05/18 03:37:48;;;;;;;5.57;4.57;;;14.80;99.90;;;;;;5062741;28;20438;-77
2022/05/18 03:40:37;;;;;;;6.50;4.90;;;14.80;99.90;;;;;;5068697;28;20489;-79
2022/05/18 03:43:24;;;;;;;5.73;4.10;;;14.80;99.90;;;;;;5071057;28;20571;-79
2022/05/18 03:46:11;;;;;;;6.70;4.63;;;14.80;99.90;;;;;;5064582;28;20473;-79
2022/05/18 03:48:58;;;;;;;6.50;4.87;;;14.80;99.90;;;;;;5069163;28;20976;-78
2022/05/18 03:51:43;;;;;;;5.87;4.67;;;14.80;99.90;;;;;;5063871;28;20493;-79
2022/05/18 03:54:29;;;;;;;12.30;4.73;;;14.80;99.90;;;;;;5066686;28;20963;-77
2022/05/18 03:57:16;;;;;;;6.87;4.37;;;14.80;99.90;;;;;;5059671;28;20454;-79
2022/05/18 04:00:04;;;;;;;5.20;4.00;;;14.80;99.90;;;;;;5066281;28;20424;-78
2022/05/18 04:02:50;;;;;;;9.10;4.60;;;14.90;99.90;;;;;;5065081;28;20466;-79
2022/05/18 04:05:38;;;;;;;7.73;5.20;;;14.80;99.90;;;;;;5061897;28;20445;-79
2022/05/18 04:08:23;;;;;;;5.77;4.00;;;14.90;99.90;;;;;;5065488;28;20458;-78
2022/05/18 04:11:09;;;;;;;8.97;4.50;;;14.70;99.90;;;;;;5059663;28;20451;-78
2022/05/18 04:13:56;;;;;;;6.33;4.77;;;14.70;99.90;;;;;;5065179;28;20780;-78
2022/05/18 04:16:48;;;;;;;5.70;4.30;;;14.80;99.90;;;;;;5053771;28;21038;-77
2022/05/18 04:19:35;;;;;;;7.43;4.63;;;14.80;99.90;;;;;;5067996;28;20501;-79
2022/05/18 04:22:21;;;;;;;8.33;4.73;;;14.80;99.90;;;;;;5072049;28;20441;-79
2022/05/18 04:25:08;;;;;;;6.63;4.20;;;14.80;99.90;;;;;;5058866;28;20424;-78
2022/05/18 04:27:54;;;;;;;5.23;4.00;;;14.90;99.90;;;;;;5065196;28;20504;-78
2022/05/18 04:30:42;;;;;;;4.70;3.57;;;15.00;99.90;;;;;;5063480;28;20426;-78
2022/05/18 04:33:28;;;;;;;9.30;4.50;;;14.90;99.90;;;;;;5066607;28;20447;-79
2022/05/18 04:36:14;;;;;;;7.23;4.30;;;15.00;99.90;;;;;;5061217;28;20520;-79
2022/05/18 04:39:00;;;;;;;10.63;5.30;;;15.00;99.90;;;;;;5070398;28;20516;-78
2022/05/18 04:41:45;;;;;;;5.60;4.10;;;15.00;99.90;;;;;;5059770;28;20402;-78
2022/05/18 04:44:31;;;;;;;5.23;4.60;;;15.20;99.90;;;;;;5060829;28;20470;-78
2022/05/18 04:47:21;;;;;;;7.60;5.20;;;15.20;99.90;;;;;;5063418;28;20424;-78
2022/05/18 04:50:08;;;;;;;7.97;4.93;;;15.20;99.90;;;;;;5066257;28;20472;-78
2022/05/18 04:52:54;;;;;;;8.20;4.77;;;15.40;99.90;;;;;;5064781;28;20890;-79
2022/05/18 04:55:39;;;;;;;5.97;4.23;;;15.50;99.90;;;;;;5063298;28;20473;-79
2022/05/18 04:58:25;;;;;;;5.03;4.30;;;15.50;99.90;;;;;;5067303;28;20454;-79
2022/05/18 05:01:12;;;;;;;6.87;4.70;;;15.70;99.90;;;;;;5069212;28;20430;-78
2022/05/18 05:03:59;;;;;;;7.73;4.63;;;15.80;99.90;;;;;;5065532;28;20919;-79
2022/05/18 05:06:44;;;;;;;4.83;4.33;;;15.70;99.90;;;;;;5057145;28;20557;-77
2022/05/18 05:09:30;;;;;;;6.53;4.90;;;15.90;99.90;;;;;;5060360;28;21022;-79
2022/05/18 05:12:16;;;;;;;5.80;4.20;;;15.90;99.90;;;;;;5068027;28;20423;-77
2022/05/18 05:15:02;;;;;;;6.57;4.07;;;16.00;99.90;;;;;;5066512;28;20469;-79
2022/05/18 05:17:48;;;;;;;9.67;5.67;;;16.10;99.90;;;;;;5062604;28;20393;-79
2022/05/18 05:20:35;;;;;;;12.87;5.33;;;16.00;99.90;;;;;;5071931;28;20426;-79
2022/05/18 05:23:22;;;;;;;8.43;6.00;;;16.10;99.90;;;;;;5062191;28;20473;-78
2022/05/18 05:26:08;;;;;;;10.43;7.00;;;16.20;99.90;;;;;;5063204;28;20469;-79
2022/05/18 05:28:54;;;;;;;15.43;5.50;;;16.30;99.90;;;;;;5060041;28;20442;-79
2022/05/18 05:31:40;;;;;;;7.70;4.60;;;16.40;99.90;;;;;;5072348;28;20421;-78
2022/05/18 05:34:26;;;;;;;12.43;5.07;;;16.50;99.90;;;;;;5063634;28;20475;-79
2022/05/18 05:37:13;;;;;;;8.53;4.83;;;16.70;99.90;;;;;;5062228;28;20430;-78
2022/05/18 05:39:58;;;;;;;7.83;4.60;;;16.90;99.90;;;;;;5072807;28;20393;-78
2022/05/18 05:42:44;;;;;;;9.93;4.23;;;16.90;99.90;;;;;;5065766;28;20519;-78
2022/05/18 05:45:30;;;;;;;5.00;4.27;;;17.10;99.90;;;;;;5067604;28;20508;-78
2022/05/18 05:48:15;;;;;;;5.67;4.67;;;17.20;99.90;;;;;;5073362;28;20420;-78
2022/05/18 05:51:02;;;;;;;7.20;4.20;;;17.40;99.90;;;;;;5069778;28;20409;-78
2022/05/18 05:53:50;;;;;;;7.20;4.90;;;17.50;99.90;;;;;;5069249;28;20439;-78
2022/05/18 05:56:36;;;;;;;6.67;4.30;;;17.70;99.90;;;;;;5068126;28;20432;-79
2022/05/18 05:59:22;;;;;;;6.23;4.00;;;17.80;99.90;;;;;;5066927;28;20438;-78
2022/05/18 06:02:11;;;;;;;7.70;5.10;;;17.90;99.90;;;;;;5067300;28;20463;-79
2022/05/18 06:04:57;;;;;;;6.67;3.77;;;18.00;99.90;;;;;;5061867;28;20429;-78
2022/05/18 06:07:44;;;;;;;6.23;4.60;;;18.30;99.90;;;;;;5067881;28;20863;-80
2022/05/18 06:10:31;;;;;;;6.43;4.83;;;18.40;99.90;;;;;;5071028;28;20441;-78
2022/05/18 06:13:17;;;;;;;14.73;5.07;;;18.40;99.90;;;;;;5077446;28;20447;-79
2022/05/18 06:16:03;;;;;;;4.70;4.07;;;18.60;99.90;;;;;;5064557;28;20483;-77
2022/05/18 06:18:49;;;;;;;8.53;4.93;;;18.70;99.90;;;;;;5075328;28;20989;-78
2022/05/18 06:21:34;;;;;;;8.90;5.07;;;18.80;99.90;;;;;;5068411;28;20975;-78
2022/05/18 06:24:20;;;;;;;4.73;3.80;;;19.00;99.90;;;;;;5063062;28;20968;-79
2022/05/18 06:27:08;;;;;;;6.50;4.47;;;19.10;99.90;;;;;;5070816;28;20917;-78
2022/05/18 06:29:53;;;;;;;9.73;4.30;;;19.20;99.90;;;;;;5055611;28;20451;-79
2022/05/18 06:32:39;;;;;;;6.20;3.37;;;19.40;99.90;;;;;;5066223;28;20430;-78
2022/05/18 06:35:25;;;;;;;5.50;4.30;;;19.60;99.90;;;;;;5065672;28;20471;-78
2022/05/18 06:38:12;;;;;;;6.37;4.20;;;19.70;99.90;;;;;;5067410;28;20442;-78
2022/05/18 06:44:05;;;;;;;8.53;4.27;;;19.90;99.90;;;;;;5069686;28;20498;-78
2022/05/18 06:46:52;;;;;;;8.23;4.00;;;19.90;99.90;;;;;;5068039;28;20435;-79
2022/05/18 06:49:38;;;;;;;4.60;3.53;;;20.10;99.90;;;;;;5074459;28;20707;-78
2022/05/18 06:52:25;;;;;;;9.70;4.40;;;20.30;99.90;;;;;;5073911;28;20454;-79
2022/05/18 06:55:11;;;;;;;5.43;3.40;;;20.30;99.90;;;;;;5066846;28;20490;-78
2022/05/18 06:57:56;;;;;;;8.00;4.63;;;20.50;99.90;;;;;;5074904;28;20405;-78
2022/05/18 07:00:43;;;;;;;7.30;4.17;;;20.60;99.90;;;;;;5063896;28;20442;-78
2022/05/18 07:03:29;;;;;;;10.33;4.23;;;20.70;99.90;;;;;;5074446;28;20839;-78
2022/05/18 07:06:17;;;;;;;11.63;4.00;;;20.80;99.90;;;;;;5064607;28;20441;-79
2022/05/18 07:09:05;;;;;;;4.87;3.60;;;20.90;99.90;;;;;;5075055;28;20569;-77
2022/05/18 07:11:51;;;;;;;8.17;3.57;;;21.10;99.90;;;;;;5074690;28;20426;-78
2022/05/18 07:14:36;;;;;;;9.83;3.63;;;21.20;99.90;;;;;;5065278;28;20452;-78
2022/05/18 07:17:24;;;;;;;7.60;3.70;;;21.30;99.90;;;;;;5071387;28;20454;-78
2022/05/18 07:20:11;;;;;;;7.47;3.70;;;21.30;99.90;;;;;;5069969;28;20435;-78
2022/05/18 07:22:56;;;;;;;8.50;4.00;;;21.40;99.90;;;;;;5070632;28;20475;-79
2022/05/18 07:25:42;;;;;;;9.10;3.70;;;21.50;99.90;;;;;;5065671;28;20470;-79
2022/05/18 07:28:27;;;;;;;7.13;4.27;;;21.70;99.90;;;;;;5068871;28;20439;-79
2022/05/18 07:31:15;;;;;;;4.67;3.30;;;21.70;99.90;;;;;;5066209;28;20422;-78
2022/05/18 07:34:03;;;;;;;5.90;3.53;;;21.80;99.90;;;;;;5058691;28;20464;-79
2022/05/18 07:36:49;;;;;;;5.00;3.50;;;22.00;99.90;;;;;;5066038;28;20460;-78
2022/05/18 07:39:36;;;;;;;9.93;3.70;;;22.10;99.90;;;;;;5068569;28;21033;-78
2022/05/18 07:42:22;;;;;;;4.40;3.83;;;22.20;99.90;;;;;;5069985;28;20444;-78
2022/05/18 07:45:09;;;;;;;11.83;4.17;;;22.30;99.90;;;;;;5070754;28;20463;-79
2022/05/18 07:47:55;;;;;;;5.80;4.00;;;22.40;99.90;;;;;;5070415;28;20857;-78
2022/05/18 07:50:42;;;;;;;5.47;3.03;;;22.50;99.90;;;;;;5072384;28;20419;-78
2022/05/18 07:53:28;;;;;;;4.70;3.77;;;22.60;95.80;;;;;;5069902;28;20466;-79
2022/05/18 07:56:13;;;;;;;4.70;3.30;;;22.70;91.30;;;;;;5066097;28;20475;-79
2022/05/18 07:58:59;;;;;;;5.10;3.20;;;22.70;82.70;;;;;;5076851;28;20451;-78
2022/05/18 08:01:45;;;;;;;5.93;2.90;;;22.80;77.60;;;;;;5068483;28;20486;-77
2022/05/18 08:04:31;;;;;;;3.87;3.07;;;22.90;81.30;;;;;;5066343;28;20521;-77
2022/05/18 08:07:18;;;;;;;7.20;3.80;;;23.00;78.00;;;;;;5074761;28;20531;-78
2022/05/18 08:16:12;;;;;;;8.70;4.43;;;23.20;82.10;;;;;;5072591;28;20997;-77
2022/05/18 08:18:58;;;;;;;6.77;4.20;;;23.30;72.20;;;;;;5065184;28;20447;-77
2022/05/18 08:21:44;;;;;;;5.80;3.20;;;23.40;73.70;;;;;;5068889;28;20450;-78
2022/05/18 08:24:31;;;;;;;4.70;3.10;;;23.50;76.10;;;;;;5067056;28;20540;-78
2022/05/18 08:27:18;;;;;;;6.90;3.60;;;23.60;74.20;;;;;;5071331;28;20451;-78
2022/05/18 08:30:06;;;;;;;10.27;3.27;;;23.60;68.60;;;;;;5067141;28;20442;-77
2022/05/18 08:32:52;;;;;;;5.00;3.03;;;23.70;67.90;;;;;;5065487;28;20425;-78
2022/05/18 08:35:38;;;;;;;8.80;3.13;;;23.80;72.80;;;;;;5070555;28;20466;-77
2022/05/18 08:38:24;;;;;;;5.57;3.30;;;23.90;69.50;;;;;;5068328;28;20578;-77
2022/05/18 08:41:14;;;;;;;6.37;3.20;;;24.00;64.70;;;;;;5066284;28;20439;-77
2022/05/18 08:44:03;;;;;;;5.47;3.07;;;24.00;66.40;;;;;;5061331;28;20466;-77
2022/05/18 08:47:00;;;;;;;4.33;3.03;;;24.00;63.20;;;;;;5067998;28;20465;-77
2022/05/18 08:49:56;;;;;;;5.17;3.50;;;24.00;68.20;;;;;;5068459;28;20446;-77
2022/05/18 08:52:54;;;;;;;5.37;3.10;;;24.00;69.70;;;;;;5071242;28;20455;-77
2022/05/18 08:55:53;;;;;;;5.80;4.30;;;24.20;66.40;;;;;;5071916;28;20476;-79
2022/05/18 08:58:44;;;;;;;6.97;4.20;;;24.30;69.20;;;;;;5088073;28;20446;-77
2022/05/18 09:01:35;;;;;;;3.80;2.93;;;24.30;64.60;;;;;;5068136;28;20524;-77
2022/05/18 09:04:26;;;;;;;6.93;3.40;;;24.40;62.90;;;;;;5067551;28;20466;-79
2022/05/18 09:07:16;;;;;;;5.60;3.40;;;24.50;65.50;;;;;;5075690;28;20553;-77
2022/05/18 09:10:13;;;;;;;7.43;3.10;;;24.50;58.10;;;;;;5059980;28;20432;-77
2022/05/18 09:12:58;;;;;;;4.00;3.00;;;24.50;55.70;;;;;;5061168;28;20458;-78
2022/05/18 09:15:59;;;;;;;4.13;3.10;;;24.60;62.30;;;;;;5065771;28;20541;-78
2022/05/18 09:18:52;;;;;;;5.03;2.90;;;24.70;59.00;;;;;;5086849;28;20536;-79
2022/05/18 09:21:47;;;;;;;4.90;3.10;;;24.80;60.00;;;;;;5089741;28;20426;-78
2022/05/18 09:24:45;;;;;;;6.87;3.60;;;24.90;56.10;;;;;;5076086;28;20478;-77
2022/05/18 09:27:40;;;;;;;6.67;3.33;;;25.00;56.40;;;;;;5078811;28;20453;-79
2022/05/18 09:30:34;;;;;;;6.83;3.10;;;25.00;53.30;;;;;;5069279;28;20543;-78
2022/05/18 09:33:37;;;;;;;4.33;2.67;;;25.00;52.50;;;;;;5072287;28;20954;-79
2022/05/18 09:36:45;;;;;;;5.90;3.50;;;25.10;57.80;;;;;;5065707;28;20474;-78
2022/05/18 09:39:38;;;;;;;6.03;2.30;;;25.30;58.20;;;;;;5066492;28;20905;-78
2022/05/18 09:42:28;;;;;;;4.50;2.43;;;25.40;55.80;;;;;;5065281;28;20458;-78
2022/05/18 09:45:17;;;;;;;9.00;3.20;;;25.50;48.50;;;;;;5059186;28;20474;-78
2022/05/18 09:48:08;;;;;;;6.80;2.67;;;25.50;47.30;;;;;;5066992;28;20967;-78
2022/05/18 09:50:57;;;;;;;4.00;2.20;;;25.50;49.00;;;;;;5057677;28;20925;-78
2022/05/18 09:53:42;;;;;;;4.40;2.30;;;25.50;52.40;;;;;;5062057;28;20924;-78
2022/05/18 09:56:33;;;;;;;5.90;2.50;;;25.60;53.10;;;;;;5066205;28;20585;-78
2022/05/18 09:59:25;;;;;;;8.33;2.80;;;25.70;52.60;;;;;;5061113;28;20501;-78
2022/05/18 10:08:34;;;;;;;3.67;1.90;;;25.80;49.30;;;;;;5076554;28;20480;-77
2022/05/18 10:11:23;;;;;;;3.50;2.27;;;26.00;49.10;;;;;;5076611;28;20424;-77
2022/05/18 10:14:15;;;;;;;3.93;2.00;;;26.20;47.90;;;;;;5057835;28;20438;-78
2022/05/18 10:17:05;;;;;;;3.90;2.00;;;26.30;41.60;;;;;;5060194;28;20444;-78
2022/05/18 10:19:54;;;;;;;3.10;2.07;;;26.30;45.90;;;;;;5057107;28;20420;-79
2022/05/18 10:22:42;;;;;;;7.10;2.30;;;26.40;40.10;;;;;;5063012;28;20456;-78
2022/05/18 10:25:35;;;;;;;8.40;2.00;;;26.40;42.10;;;;;;5070746;28;20503;-79
2022/05/18 10:28:23;;;;;;;6.60;2.37;;;26.50;39.20;;;;;;5076382;28;20423;-79
2022/05/18 10:31:26;;;;;;;5.53;2.40;;;26.50;46.10;;;;;;5068517;28;20426;-78
2022/05/18 10:34:24;;;;;;;5.30;2.07;;;26.60;38.60;;;;;;5068197;28;20410;-78
2022/05/18 10:37:12;;;;;;;4.07;2.00;;;26.80;41.10;;;;;;5055448;28;20416;-79
2022/05/18 10:40:02;;;;;;;4.03;2.40;;;26.90;40.60;;;;;;5056833;28;20420;-78
2022/05/18 10:42:52;;;;;;;4.90;2.47;;;27.00;37.90;;;;;;5059959;28;20450;-77
2022/05/18 10:45:38;;;;;;;6.33;3.10;;;27.10;40.90;;;;;;5072846;28;20466;-77
2022/05/18 10:48:27;;;;;;;6.07;2.60;;;27.20;41.00;;;;;;5071730;28;20427;-77
2022/05/18 10:51:14;;;;;;;6.60;1.77;;;27.30;41.40;;;;;;5068516;28;20452;-77
2022/05/18 10:54:15;;;;;;;7.40;2.10;;;27.50;36.90;;;;;;5055478;28;21004;-77
2022/05/18 10:57:12;;;;;;;4.40;2.37;;;27.60;37.90;;;;;;5052474;28;20516;-77
2022/05/18 11:00:06;;;;;;;4.13;2.53;;;27.70;38.90;;;;;;5053611;28;20991;-78
2022/05/18 11:02:56;;;;;;;4.60;2.00;;;27.60;37.40;;;;;;5076122;28;20446;-77
2022/05/18 11:05:46;;;;;;;6.00;3.10;;;27.50;41.70;;;;;;5082756;28;20949;-77
2022/05/18 11:08:32;;;;;;;5.00;2.27;;;27.50;40.90;;;;;;5075682;28;20431;-76
2022/05/18 11:11:30;;;;;;;2.90;2.00;;;27.40;38.90;;;;;;5076553;28;20504;-75
2022/05/18 11:14:22;;;;;;;4.97;3.00;;;27.40;39.10;;;;;;5073008;28;20426;-77
2022/05/18 11:17:24;;;;;;;5.17;2.33;;;27.40;36.10;;;;;;5076382;28;20471;-76
2022/05/18 11:20:19;;;;;;;7.90;1.77;;;27.50;38.50;;;;;;5057737;28;20431;-76
2022/05/18 11:23:17;;;;;;;4.33;1.47;;;27.70;39.20;;;;;;5058931;28;20818;-76
2022/05/18 11:26:11;;;;;;;2.70;1.50;;;27.90;36.40;;;;;;5060656;28;20480;-76
2022/05/18 11:29:05;;;;;;;3.37;1.83;;;28.00;35.40;;;;;;5064049;28;20534;-76
2022/05/18 11:32:15;;;;;;;3.70;1.70;;;28.20;36.40;;;;;;5071702;28;20449;-76
2022/05/18 11:35:14;;;;;;;2.63;1.67;;;28.30;36.80;;;;;;5068313;28;20411;-76
2022/05/18 11:38:15;;;;;;;3.50;1.73;;;28.40;33.30;;;;;;5071586;28;20779;-76
2022/05/18 11:41:15;;;;;;;3.13;1.70;;;28.40;33.30;;;;;;5063555;28;20443;-76
2022/05/18 11:44:04;;;;;;;3.60;2.10;;;28.50;36.20;;;;;;5069852;28;20455;-76
2022/05/18 11:47:10;;;;;;;4.93;2.40;;;28.40;31.80;;;;;;5075773;28;20437;-76
2022/05/18 11:50:09;;;;;;;3.60;1.73;;;28.50;35.10;;;;;;5065807;28;20809;-77
2022/05/18 11:53:10;;;;;;;4.33;2.47;;;28.50;33.40;;;;;;5072580;28;20534;-77
2022/05/18 11:56:12;;;;;;;2.73;1.50;;;28.70;33.50;;;;;;5072652;28;20441;-77
2022/05/18 11:59:25;;;;;;;3.67;1.90;;;28.70;32.20;;;;;;5070988;28;20441;-76
2022/05/18 12:02:30;;;;;;;7.20;2.40;;;28.70;30.80;;;;;;5076123;28;20798;-76
2022/05/18 12:05:34;;;;;;;4.90;1.70;;;28.90;30.40;;;;;;5065471;28;20567;-76
2022/05/18 12:08:46;;;;;;;8.30;1.87;;;29.10;32.90;;;;;;5061141;28;20451;-76
2022/05/18 12:11:42;;;;;;;5.03;1.80;;;29.20;30.00;;;;;;5074109;28;20455;-77
2022/05/18 12:14:38;;;;;;;5.30;2.00;;;29.10;26.80;;;;;;5075982;28;20431;-76
2022/05/18 12:17:29;;;;;;;4.10;1.70;;;29.20;30.30;;;;;;5068024;28;20467;-76
2022/05/18 12:20:25;;;;;;;2.67;1.40;;;29.20;29.80;;;;;;5066116;28;20443;-76
2022/05/18 12:23:16;;;;;;;5.50;1.60;;;29.40;27.20;;;;;;5063666;28;20446;-76
2022/05/18 12:26:02;;;;;;;7.10;1.43;;;29.60;30.00;;;;;;5063583;28;20470;-77
2022/05/18 12:28:48;;;;;;;3.77;1.50;;;29.70;28.00;;;;;;5061237;28;20442;-76
2022/05/18 12:31:35;;;;;;;2.90;1.40;;;29.80;26.60;;;;;;5066018;28;20442;-76
2022/05/18 12:34:28;;;;;;;4.27;1.70;;;29.80;26.40;;;;;;5068642;28;20516;-76
2022/05/18 12:37:24;;;;;;;4.40;1.53;;;29.80;26.70;;;;;;5052207;28;20524;-77
2022/05/18 12:40:33;;;;;;;3.47;2.10;;;29.90;25.70;;;;;;5067726;28;20430;-77
2022/05/18 12:43:26;;;;;;;2.67;1.50;;;29.90;26.90;;;;;;5070784;28;20518;-76
2022/05/18 12:46:23;;;;;;;5.37;1.80;;;30.00;26.90;;;;;;5070237;28;20889;-76
2022/05/18 12:49:17;;;;;;;9.70;1.70;;;30.10;29.60;;;;;;5061642;28;20624;-77
2022/05/18 12:52:06;;;;;;;2.90;1.53;;;30.20;27.70;;;;;;5062106;28;20806;-76
2022/05/18 12:54:57;;;;;;;5.07;1.57;;;30.20;25.40;;;;;;5062473;28;20424;-76
2022/05/18 12:57:55;;;;;;;4.27;2.43;;;30.20;25.60;;;;;;5064477;28;20450;-76
2022/05/18 13:00:50;;;;;;;4.10;2.13;;;30.20;25.90;;;;;;5074620;28;20407;-77
2022/05/18 13:03:46;;;;;;;4.87;1.80;;;29.90;25.50;;;;;;5074759;28;20427;-76
2022/05/18 13:06:48;;;;;;;4.53;2.17;;;30.10;27.70;;;;;;5070320;28;20854;-75
2022/05/18 13:09:39;;;;;;;3.50;1.43;;;30.20;25.70;;;;;;5065789;28;20422;-77
2022/05/18 13:12:47;;;;;;;3.27;1.50;;;30.40;27.10;;;;;;5070742;28;20439;-77
2022/05/18 13:15:52;;;;;;;4.70;1.40;;;30.50;26.10;;;;;;5070732;28;20466;-76
2022/05/18 13:18:39;;;;;;;7.43;2.07;;;30.70;25.20;;;;;;5065664;28;20943;-76
2022/05/18 13:21:29;;;;;;;3.57;1.60;;;30.80;25.70;;;;;;5070168;28;20462;-77
2022/05/18 13:24:20;;;;;;;4.37;1.57;;;31.00;24.70;;;;;;5066944;28;20443;-77
2022/05/18 13:27:12;;;;;;;3.40;2.03;;;31.10;24.40;;;;;;5063841;28;20462;-77
2022/05/18 13:30:02;;;;;;;3.20;1.67;;;31.10;24.50;;;;;;5070215;28;20468;-76
2022/05/18 13:32:49;;;;;;;3.87;1.90;;;31.20;24.00;;;;;;5067502;28;20453;-76
2022/05/18 13:35:35;;;;;;;2.87;1.50;;;31.30;24.60;;;;;;5069104;28;20461;-77
2022/05/18 13:38:24;;;;;;;2.87;1.20;;;31.40;25.20;;;;;;5066833;28;20443;-77
2022/05/18 13:41:13;;;;;;;3.67;1.77;;;31.40;24.50;;;;;;5068761;28;20971;-76
2022/05/18 13:44:01;;;;;;;4.10;1.20;;;31.50;23.10;;;;;;5066871;28;20958;-76
2022/05/18 13:46:49;;;;;;;3.60;1.80;;;31.10;22.90;;;;;;5062049;28;20479;-77
2022/05/18 13:49:40;;;;;;;5.77;1.43;;;30.90;22.30;;;;;;5069639;28;20940;-77
2022/05/18 13:52:30;;;;;;;3.10;1.20;;;30.90;22.70;;;;;;5069161;28;20447;-77
2022/05/18 13:55:20;;;;;;;7.23;1.70;;;30.90;22.70;;;;;;5068292;28;20450;-77
2022/05/18 13:58:08;;;;;;;3.10;1.80;;;30.90;22.70;;;;;;5065602;28;20439;-77
2022/05/18 14:00:58;;;;;;;3.77;1.80;;;31.00;23.50;;;;;;5068394;28;20601;-77
2022/05/18 14:03:47;;;;;;;3.60;1.50;;;30.90;22.70;;;;;;5066583;28;20447;-77
2022/05/18 14:06:33;;;;;;;5.80;1.40;;;31.00;23.10;;;;;;5065683;28;20524;-77
2022/05/18 14:09:21;;;;;;;3.63;1.50;;;31.00;22.80;;;;;;5071335;28;20451;-76
2022/05/18 14:12:13;;;;;;;3.47;1.40;;;31.10;23.00;;;;;;5069636;28;20446;-76
2022/05/18 14:14:58;;;;;;;7.23;2.20;;;31.10;22.80;;;;;;5053085;28;20420;-76
2022/05/18 14:17:44;;;;;;;3.80;1.60;;;31.10;22.80;;;;;;5068639;28;20443;-76
2022/05/18 14:20:38;;;;;;;3.00;1.20;;;31.20;23.80;;;;;;5066067;28;20521;-76
2022/05/18 14:23:30;;;;;;;5.63;2.23;;;31.20;24.10;;;;;;5070887;28;20451;-77
2022/05/18 14:26:17;;;;;;;7.10;1.80;;;31.30;25.20;;;;;;5055812;28;20513;-76
2022/05/18 14:29:05;;;;;;;2.80;1.57;;;31.30;25.00;;;;;;5064981;28;20462;-76
2022/05/18 14:31:54;;;;;;;5.13;1.90;;;31.30;24.70;;;;;;5065944;28;20932;-77
2022/05/18 14:34:44;;;;;;;3.07;1.60;;;31.40;26.80;;;;;;5070786;28;20451;-76
2022/05/18 14:37:35;;;;;;;3.60;1.83;;;31.50;25.90;;;;;;5055830;28;20566;-76
2022/05/18 14:40:24;;;;;;;6.40;1.93;;;31.60;25.70;;;;;;5067643;28;20963;-76
2022/05/18 14:43:11;;;;;;;4.67;2.10;;;31.60;25.60;;;;;;5067896;28;21403;-75
2022/05/18 14:46:05;;;;;;;2.97;1.67;;;31.60;24.20;;;;;;5067147;28;20568;-80
2022/05/18 14:49:05;;;;;;;4.07;1.50;;;31.50;23.10;;;;;;5062264;28;20440;-82
2022/05/18 14:51:59;;;;;;;4.13;1.80;;;31.50;23.10;;;;;;5063116;28;20438;-82
2022/05/18 14:54:49;;;;;;;7.03;2.00;;;31.30;23.00;;;;;;5063769;28;20443;-81
2022/05/18 14:57:38;;;;;;;3.50;1.63;;;31.20;24.70;;;;;;5061513;28;20416;-80
2022/05/18 15:00:34;;;;;;;6.23;2.03;;;31.20;24.70;;;;;;5074458;28;21014;-80